Time;durP1;ratioP1;P1;durP2;ratioP2;P2;SDS_P1;SDS_P2;PMS_P1;PMS_P2;Temp;Humidity;BMP_temperature;BMP_pressure;BME280_temperature;BME280_humidity;BME280_pressure;Samples;Min_cycle;Max_cycle;Signal;HPM_P1;HPM_P2
2023/05/12 00:00:44;;;;;;;2.65;1.60;;;9.00;99.90;;;;;;5010450;28;20120;-79
2023/05/12 00:03:09;;;;;;;3.58;2.38;;;9.00;99.90;;;;;;4992781;28;20479;-80
2023/05/12 00:05:35;;;;;;;2.47;1.52;;;9.10;99.90;;;;;;4992702;28;20052;-80
2023/05/12 00:08:00;;;;;;;3.75;1.42;;;9.10;99.90;;;;;;5010610;28;20026;-80
2023/05/12 00:10:27;;;;;;;1.63;1.50;;;9.10;99.90;;;;;;4995275;28;20056;-82
2023/05/12 00:12:54;;;;;;;15.80;1.98;;;9.10;99.90;;;;;;4995219;28;20390;-81
2023/05/12 00:15:20;;;;;;;4.53;1.70;;;9.10;99.90;;;;;;4993499;28;20029;-81
2023/05/12 00:17:46;;;;;;;2.20;1.63;;;9.20;99.90;;;;;;4993145;28;20113;-80
2023/05/12 00:20:11;;;;;;;1.88;1.63;;;9.20;99.90;;;;;;4992634;28;20037;-79
2023/05/12 00:22:38;;;;;;;2.50;1.83;;;9.30;99.90;;;;;;4992604;28;20058;-80
2023/05/12 00:25:04;;;;;;;3.75;1.75;;;9.30;99.90;;;;;;5009625;28;20214;-81
2023/05/12 00:27:30;;;;;;;1.73;1.60;;;9.20;99.90;;;;;;4993062;28;20513;-81
2023/05/12 00:29:57;;;;;;;2.15;2.00;;;9.20;99.90;;;;;;4992839;28;20054;-81
2023/05/12 00:32:23;;;;;;;2.67;1.73;;;9.20;99.90;;;;;;4992991;28;20022;-81
2023/05/12 00:34:49;;;;;;;2.67;1.40;;;9.20;99.90;;;;;;4992982;28;20038;-81
2023/05/12 00:37:15;;;;;;;2.17;1.38;;;9.10;99.90;;;;;;4992939;28;20363;-81
2023/05/12 00:39:41;;;;;;;1.40;1.30;;;9.20;99.90;;;;;;5002428;28;20221;-82
2023/05/12 00:42:07;;;;;;;8.80;2.30;;;9.20;99.90;;;;;;5000265;28;20473;-82
2023/05/12 00:44:33;;;;;;;3.33;1.45;;;9.20;99.90;;;;;;5018864;28;20029;-81
2023/05/12 00:46:59;;;;;;;2.60;1.83;;;;;;;;;;5000383;28;20120;-82
2023/05/12 00:49:25;;;;;;;2.78;1.80;;;9.20;99.90;;;;;;5001954;28;20025;-82
2023/05/12 00:51:53;;;;;;;2.10;1.40;;;9.20;99.90;;;;;;4999404;28;20061;-82
2023/05/12 00:54:19;;;;;;;1.73;1.48;;;9.30;99.90;;;;;;4993907;28;20026;-82
2023/05/12 00:56:45;;;;;;;1.45;1.35;;;9.30;99.90;;;;;;4994023;28;20474;-81
2023/05/12 00:59:10;;;;;;;4.50;1.50;;;9.40;99.90;;;;;;4993462;28;20132;-81
2023/05/12 01:01:37;;;;;;;4.30;2.45;;;9.40;99.90;;;;;;5010435;28;20046;-81
2023/05/12 01:04:03;;;;;;;1.65;1.55;;;9.40;99.90;;;;;;4993240;28;20022;-81
2023/05/12 01:06:47;;;;;;;1.60;1.50;;;9.40;99.90;;;;;;5014067;28;20100;-81
2023/05/12 01:09:14;;;;;;;1.75;1.45;;;9.30;99.90;;;;;;4997457;28;20021;-81
2023/05/12 01:11:40;;;;;;;1.02;1.02;;;9.30;99.90;;;;;;4997448;28;20042;-81
2023/05/12 01:14:06;;;;;;;2.67;1.20;;;9.20;99.90;;;;;;4997674;28;20026;-82
2023/05/12 01:16:38;;;;;;;1.80;1.33;;;9.20;99.90;;;;;;5015444;28;20022;-81
2023/05/12 01:19:09;;;;;;;2.03;1.50;;;9.10;99.90;;;;;;5001666;28;20080;-82
2023/05/12 01:21:35;;;;;;;1.35;1.10;;;9.00;99.90;;;;;;5034781;28;20551;-81
2023/05/12 01:24:05;;;;;;;3.42;1.75;;;9.00;99.90;;;;;;5016532;28;20022;-81
2023/05/12 01:26:32;;;;;;;2.00;1.80;;;9.00;99.90;;;;;;5033969;28;20030;-81
2023/05/12 01:29:00;;;;;;;1.63;1.52;;;9.00;99.90;;;;;;5017419;28;20137;-81
2023/05/12 01:31:26;;;;;;;2.40;1.27;;;8.90;99.90;;;;;;5034562;28;20032;-81
2023/05/12 01:33:52;;;;;;;1.75;1.65;;;8.90;99.90;;;;;;5017343;28;20506;-81
2023/05/12 01:36:17;;;;;;;1.60;1.50;;;8.90;99.90;;;;;;5036429;28;20037;-81
2023/05/12 01:38:43;;;;;;;3.35;1.50;;;8.80;99.90;;;;;;5035594;28;20021;-81
2023/05/12 01:41:08;;;;;;;4.50;2.63;;;8.80;99.90;;;;;;5017999;28;20449;-81
2023/05/12 01:43:35;;;;;;;3.38;1.73;;;8.80;99.90;;;;;;5017791;28;20097;-82
2023/05/12 01:46:01;;;;;;;2.92;1.73;;;8.80;99.90;;;;;;5017358;28;20030;-81
2023/05/12 01:48:27;;;;;;;2.00;1.48;;;8.80;99.90;;;;;;5016501;28;20029;-81
2023/05/12 01:50:52;;;;;;;2.40;1.90;;;8.80;99.90;;;;;;5016085;28;20088;-82
2023/05/12 01:53:18;;;;;;;1.15;1.10;;;8.70;99.90;;;;;;5015790;28;20037;-81
2023/05/12 01:55:43;;;;;;;2.10;1.90;;;8.70;99.90;;;;;;5015181;28;20030;-81
2023/05/12 01:58:09;;;;;;;2.10;2.00;;;8.60;99.90;;;;;;5015800;28;20116;-81
2023/05/12 02:00:35;;;;;;;3.58;2.35;;;8.60;99.90;;;;;;5023133;28;20277;-81
2023/05/12 02:03:01;;;;;;;2.08;1.48;;;8.50;99.90;;;;;;5032138;28;20034;-81
2023/05/12 02:05:27;;;;;;;1.88;1.63;;;8.50;99.90;;;;;;5032182;28;20056;-81
2023/05/12 02:07:52;;;;;;;3.17;1.63;;;8.50;99.90;;;;;;5032133;28;20473;-81
2023/05/12 02:10:18;;;;;;;2.08;1.77;;;8.40;99.90;;;;;;5031892;28;20022;-81
2023/05/12 02:12:43;;;;;;;2.58;2.35;;;8.40;99.90;;;;;;5032719;28;20034;-81
2023/05/12 02:15:09;;;;;;;7.38;1.50;;;8.30;99.90;;;;;;5031303;28;20036;-81
2023/05/12 02:17:35;;;;;;;1.85;1.75;;;8.40;99.90;;;;;;5031004;28;20025;-81
2023/05/12 02:20:00;;;;;;;2.60;1.63;;;8.40;99.90;;;;;;5021124;28;20030;-81
2023/05/12 02:22:26;;;;;;;1.90;1.65;;;8.30;99.90;;;;;;5013098;28;20033;-81
2023/05/12 02:24:52;;;;;;;2.08;1.90;;;8.40;99.90;;;;;;5013295;28;20018;-81
2023/05/12 02:27:17;;;;;;;2.60;1.85;;;8.40;99.90;;;;;;5013994;28;20034;-81
2023/05/12 02:29:43;;;;;;;1.70;1.60;;;8.40;99.90;;;;;;5013788;28;20022;-81
2023/05/12 02:32:09;;;;;;;2.22;2.03;;;8.40;99.90;;;;;;5012770;28;20093;-81
2023/05/12 02:34:34;;;;;;;4.78;2.33;;;8.40;99.90;;;;;;5011203;28;20037;-81
2023/05/12 02:37:00;;;;;;;2.17;1.90;;;8.40;99.90;;;;;;5011936;28;20030;-81
2023/05/12 02:39:25;;;;;;;2.45;2.10;;;8.50;99.90;;;;;;5012107;28;20474;-81
2023/05/12 02:41:51;;;;;;;2.70;1.45;;;8.50;99.90;;;;;;5012180;28;20073;-80
2023/05/12 02:44:17;;;;;;;2.20;1.67;;;8.50;99.90;;;;;;5013397;28;20416;-82
2023/05/12 02:46:43;;;;;;;2.10;1.95;;;8.60;99.90;;;;;;5011529;28;20084;-81
2023/05/12 02:49:08;;;;;;;2.95;1.85;;;8.60;99.90;;;;;;5010921;28;20022;-81
2023/05/12 02:51:34;;;;;;;2.10;1.90;;;8.60;99.90;;;;;;5010322;28;20564;-81
2023/05/12 02:54:00;;;;;;;2.70;1.80;;;9.60;99.90;;;;;;5010246;28;20426;-81
2023/05/12 02:56:25;;;;;;;2.83;1.98;;;8.60;99.90;;;;;;5011536;28;20054;-81
2023/05/12 02:58:52;;;;;;;2.13;1.88;;;8.60;99.90;;;;;;5011114;28;20068;-81
2023/05/12 03:01:18;;;;;;;2.47;1.83;;;8.60;99.90;;;;;;5012261;28;20082;-81
2023/05/12 03:03:43;;;;;;;3.03;1.60;;;8.60;99.90;;;;;;4995993;28;20018;-81
2023/05/12 03:06:09;;;;;;;2.70;2.50;;;8.60;99.90;;;;;;4995956;28;20021;-81
2023/05/12 03:08:35;;;;;;;2.25;1.92;;;8.70;99.90;;;;;;4996980;28;20478;-82
2023/05/12 03:11:01;;;;;;;3.05;2.03;;;;;;;;;;5013426;28;20026;-81
2023/05/12 03:13:26;;;;;;;2.83;2.40;;;8.70;99.90;;;;;;5013291;28;20037;-82
2023/05/12 03:15:52;;;;;;;3.72;1.63;;;8.70;99.90;;;;;;4995290;28;20390;-81
2023/05/12 03:18:18;;;;;;;2.17;1.98;;;8.70;99.90;;;;;;4995162;28;20044;-81
2023/05/12 03:20:43;;;;;;;2.67;1.58;;;8.70;99.90;;;;;;5012431;28;20022;-81
2023/05/12 03:23:09;;;;;;;1.95;1.83;;;8.80;99.90;;;;;;5014815;28;20038;-81
2023/05/12 03:25:34;;;;;;;2.17;1.73;;;8.80;99.90;;;;;;5014560;28;20036;-81
2023/05/12 03:28:02;;;;;;;1.73;1.63;;;8.80;99.90;;;;;;5015005;28;20056;-81
2023/05/12 03:30:28;;;;;;;2.67;2.10;;;8.90;99.90;;;;;;5015888;28;20033;-81
2023/05/12 03:32:53;;;;;;;3.25;2.45;;;8.90;99.90;;;;;;5033486;28;20033;-81
2023/05/12 03:35:19;;;;;;;3.00;2.50;;;8.90;99.90;;;;;;5033719;28;20074;-81
2023/05/12 03:37:45;;;;;;;3.25;2.38;;;8.90;99.90;;;;;;5014149;28;20033;-81
2023/05/12 03:40:17;;;;;;;3.50;1.85;;;8.90;99.90;;;;;;5014418;28;20030;-81
2023/05/12 03:42:43;;;;;;;3.53;2.40;;;8.80;99.90;;;;;;5013952;28;20065;-81
2023/05/12 03:45:09;;;;;;;4.85;2.25;;;8.90;99.90;;;;;;5012958;28;20021;-81
2023/05/12 03:47:34;;;;;;;2.53;1.98;;;8.90;99.90;;;;;;5014251;28;20045;-81
2023/05/12 03:50:00;;;;;;;3.53;3.03;;;8.90;99.90;;;;;;5033877;28;20049;-81
2023/05/12 03:52:26;;;;;;;8.27;2.00;;;8.90;99.90;;;;;;5017195;28;20124;-81
2023/05/12 03:54:51;;;;;;;2.80;2.55;;;8.90;99.90;;;;;;5017332;28;20037;-81
2023/05/12 03:57:17;;;;;;;2.63;1.85;;;8.90;99.90;;;;;;5017075;28;20032;-81
2023/05/12 03:59:43;;;;;;;2.33;2.10;;;8.90;99.90;;;;;;5018923;28;20072;-81
2023/05/12 04:02:10;;;;;;;3.83;2.95;;;8.90;99.90;;;;;;5036827;28;20477;-81
2023/05/12 04:04:36;;;;;;;1.88;1.67;;;8.90;99.90;;;;;;5040019;28;20053;-81
2023/05/12 04:07:02;;;;;;;2.65;2.30;;;8.90;99.90;;;;;;5048086;28;20031;-81
2023/05/12 04:09:30;;;;;;;3.58;2.28;;;8.90;99.90;;;;;;5047836;28;20025;-81
2023/05/12 04:11:56;;;;;;;2.50;2.30;;;8.90;99.90;;;;;;5050970;28;20037;-82
2023/05/12 04:14:22;;;;;;;6.47;3.50;;;9.00;99.90;;;;;;5048239;28;20025;-81
2023/05/12 04:16:48;;;;;;;2.80;2.42;;;9.00;99.90;;;;;;5045749;28;20029;-81
2023/05/12 04:19:13;;;;;;;4.15;2.40;;;9.00;99.90;;;;;;5033384;28;20321;-82
2023/05/12 04:21:39;;;;;;;2.90;2.70;;;9.10;99.90;;;;;;5020875;28;20010;-81
2023/05/12 04:24:05;;;;;;;3.17;2.33;;;9.00;99.90;;;;;;5014819;28;20061;-82
2023/05/12 04:26:30;;;;;;;2.60;1.70;;;9.10;99.90;;;;;;5011105;28;20394;-81
2023/05/12 04:28:56;;;;;;;2.63;1.90;;;9.10;99.90;;;;;;5014795;28;20026;-81
2023/05/12 04:31:21;;;;;;;5.93;2.53;;;9.10;99.90;;;;;;5016220;28;20030;-82
2023/05/12 04:33:47;;;;;;;1.80;1.70;;;9.10;99.90;;;;;;5017918;28;20026;-81
2023/05/12 04:36:13;;;;;;;2.25;2.05;;;9.20;99.90;;;;;;5017790;28;20026;-82
2023/05/12 04:38:40;;;;;;;2.80;2.00;;;9.20;99.90;;;;;;5017855;28;20474;-81
2023/05/12 04:41:06;;;;;;;2.63;1.52;;;9.30;99.90;;;;;;5020960;28;20022;-81
2023/05/12 04:43:32;;;;;;;4.60;2.47;;;9.40;99.90;;;;;;5019396;28;20061;-81
2023/05/12 04:45:58;;;;;;;5.40;2.50;;;9.50;99.90;;;;;;5019890;28;20030;-81
2023/05/12 04:48:23;;;;;;;2.67;1.77;;;9.60;99.90;;;;;;5020553;28;20025;-81
2023/05/12 04:50:49;;;;;;;2.17;1.88;;;9.70;99.90;;;;;;5020220;28;20558;-81
2023/05/12 04:53:15;;;;;;;1.65;1.30;;;9.70;99.90;;;;;;5020228;28;20089;-82
2023/05/12 04:55:44;;;;;;;1.80;1.50;;;9.80;99.90;;;;;;5020882;28;20022;-81
2023/05/12 04:58:11;;;;;;;2.03;1.92;;;10.00;99.90;;;;;;5019718;28;20033;-82
2023/05/12 05:00:37;;;;;;;4.43;1.90;;;10.30;99.90;;;;;;5019233;28;20104;-81
2023/05/12 05:03:02;;;;;;;3.10;2.05;;;10.30;99.90;;;;;;5020443;28;20432;-82
2023/05/12 05:05:28;;;;;;;4.03;1.77;;;10.50;99.90;;;;;;5019777;28;20552;-82
2023/05/12 05:07:54;;;;;;;5.95;1.80;;;10.60;99.90;;;;;;5020047;28;20418;-81
2023/05/12 05:10:19;;;;;;;3.50;1.90;;;10.80;99.90;;;;;;5019459;28;20030;-81
2023/05/12 05:12:45;;;;;;;5.53;1.90;;;10.80;99.90;;;;;;5018587;28;20026;-82
2023/05/12 05:15:11;;;;;;;2.55;1.65;;;10.90;99.90;;;;;;5020122;28;20018;-81
2023/05/12 05:17:37;;;;;;;2.13;1.92;;;11.00;99.90;;;;;;5018093;28;20368;-82
2023/05/12 05:20:04;;;;;;;3.92;1.73;;;10.90;99.90;;;;;;5031362;28;20089;-81
2023/05/12 05:22:30;;;;;;;1.65;1.55;;;10.90;99.90;;;;;;5040202;28;20037;-81
2023/05/12 05:24:55;;;;;;;2.63;1.80;;;10.80;99.90;;;;;;5039261;28;20477;-81
2023/05/12 05:27:21;;;;;;;1.20;1.10;;;10.80;99.90;;;;;;5040487;28;20308;-82
2023/05/12 05:29:46;;;;;;;1.83;1.55;;;10.70;99.90;;;;;;5040767;28;20018;-82
2023/05/12 05:32:13;;;;;;;5.32;1.60;;;10.70;99.90;;;;;;5037519;28;20021;-82
2023/05/12 05:34:39;;;;;;;2.97;2.15;;;10.70;99.90;;;;;;5040945;28;20060;-81
2023/05/12 05:37:05;;;;;;;1.65;1.50;;;10.90;99.90;;;;;;5041337;28;20221;-82
2023/05/12 05:39:31;;;;;;;1.73;1.63;;;;;;;;;;5041010;28;20139;-78
2023/05/12 05:41:57;;;;;;;5.97;2.13;;;10.80;99.90;;;;;;5034473;28;20034;-78
2023/05/12 05:44:24;;;;;;;2.63;2.03;;;10.80;99.90;;;;;;5042401;28;20030;-79
2023/05/12 05:46:50;;;;;;;2.15;1.60;;;10.80;99.90;;;;;;5035310;28;20029;-79
2023/05/12 05:49:15;;;;;;;1.67;1.52;;;10.90;99.90;;;;;;5031680;28;20032;-79
2023/05/12 05:51:41;;;;;;;4.93;2.30;;;11.00;99.90;;;;;;5031850;28;20398;-80
2023/05/12 05:54:07;;;;;;;7.30;2.40;;;11.10;99.90;;;;;;5033233;28;20482;-79
2023/05/12 05:56:34;;;;;;;3.97;1.92;;;11.10;99.90;;;;;;5031485;28;20030;-80
2023/05/12 05:59:04;;;;;;;4.10;2.42;;;11.10;99.90;;;;;;5030998;28;20079;-79
2023/05/12 06:01:31;;;;;;;1.65;1.52;;;11.00;99.90;;;;;;5032169;28;20026;-80
2023/05/12 06:03:56;;;;;;;4.22;2.42;;;10.90;99.90;;;;;;5032822;28;20216;-80
2023/05/12 06:06:22;;;;;;;4.38;1.85;;;10.80;99.90;;;;;;5033258;28;20177;-81
2023/05/12 06:08:47;;;;;;;4.63;1.95;;;10.90;99.90;;;;;;5032007;28;20021;-80
2023/05/12 06:11:13;;;;;;;6.82;2.22;;;10.90;99.90;;;;;;5031994;28;20025;-80
2023/05/12 06:13:40;;;;;;;2.65;2.45;;;10.90;99.90;;;;;;5102547;22;20025;-85
2023/05/12 06:16:06;;;;;;;2.85;2.30;;;;;;;;;;4990304;28;20025;-81
2023/05/12 06:18:36;;;;;;;2.17;1.92;;;;;;;;;;5316353;23;20053;-80
2023/05/12 06:21:02;;;;;;;2.28;2.08;;;;;;;;;;5015592;28;20026;-81
2023/05/12 06:23:28;;;;;;;8.73;2.97;;;;;;;;;;5021270;28;20133;-81
2023/05/12 06:25:57;;;;;;;2.60;2.40;;;11.10;99.90;;;;;;5120637;22;20008;-82
2023/05/12 06:28:22;;;;;;;7.35;2.95;;;11.10;99.90;;;;;;5034977;28;20284;-82
2023/05/12 06:30:48;;;;;;;3.42;3.13;;;;;;;;;;5037226;28;20014;-79
2023/05/12 06:33:46;;;;;;;4.97;3.25;;;11.10;99.90;;;;;;5039653;28;20025;-84
2023/05/12 06:36:12;;;;;;;2.55;2.33;;;;;;;;;;5033641;28;20041;-82
2023/05/12 06:39:26;;;;;;;2.70;2.50;;;11.20;99.90;;;;;;5040988;28;20017;-84
2023/05/12 06:42:14;;;;;;;3.30;2.72;;;11.20;99.90;;;;;;5050534;28;20363;-83
2023/05/12 06:44:40;;;;;;;2.83;2.40;;;;;;;;;;5024671;28;20145;-80
2023/05/12 06:47:06;;;;;;;2.67;2.10;;;;;;;;;;5014222;28;20025;-80
2023/05/12 06:49:35;;;;;;;2.90;2.42;;;11.30;99.90;;;;;;5017803;28;20123;-78
2023/05/12 06:52:02;;;;;;;5.22;3.63;;;11.40;99.90;;;;;;5020637;28;20474;-82
2023/05/12 06:54:50;;;;;;;4.40;2.83;;;11.60;99.90;;;;;;5031472;28;20025;-82
2023/05/12 06:57:16;;;;;;;3.50;2.67;;;;;;;;;;5196295;22;20084;-81
2023/05/12 06:59:42;;;;;;;4.47;3.17;;;;;;;;;;5020341;28;20022;-81
2023/05/12 07:02:10;;;;;;;2.92;2.65;;;;;;;;;;5032134;28;20064;-83
2023/05/12 07:04:36;;;;;;;4.75;3.20;;;11.70;99.90;;;;;;5020504;28;20117;-81
2023/05/12 07:07:02;;;;;;;9.15;4.45;;;;;;;;;;5215979;22;20121;-81
2023/05/12 07:09:31;;;;;;;6.70;4.20;;;;;;;;;;4998318;28;20030;-82
2023/05/12 07:11:58;;;;;;;;;;;11.40;99.90;;;;;;5409964;23;20069;-82
2023/05/12 07:14:24;;;;;;;5.50;4.85;;;;;;;;;;4998287;28;20358;-82
2023/05/12 07:16:50;;;;;;;6.05;4.15;;;;;;;;;;4987194;28;20171;-82
2023/05/12 07:19:31;;;;;;;6.32;4.50;;;11.30;99.90;;;;;;4996915;28;20016;-83
2023/05/12 07:21:57;;;;;;;5.80;3.80;;;11.20;99.90;;;;;;4973241;28;20038;-80
2023/05/12 07:24:23;;;;;;;5.45;4.20;;;11.50;99.90;;;;;;4980822;28;20076;-81
2023/05/12 07:26:49;;;;;;;7.35;4.30;;;11.90;99.90;;;;;;5293625;22;20021;-81
2023/05/12 07:29:15;;;;;;;5.35;3.85;;;;;;;;;;5158367;22;20690;-84
2023/05/12 07:32:00;;;;;;;6.10;3.72;;;;;;;;;;5174839;22;20225;-83
2023/05/12 07:34:26;;;;;;;7.32;4.28;;;;;;;;;;5009393;28;20014;-82
2023/05/12 07:52:24;;;;;;;6.97;4.65;;;;;;;;;;6086772;22;20026;-82
2023/05/12 07:54:50;;;;;;;7.05;4.70;;;;;;;;;;5049145;28;20089;-82
2023/05/12 07:59:52;;;;;;;7.95;4.63;;;;;;;;;;5750333;22;20925;-81
2023/05/12 08:02:19;;;;;;;10.27;4.80;;;;;;;;;;5352864;22;20004;-83
2023/05/12 08:04:45;;;;;;;9.23;4.57;;;12.80;99.90;;;;;;5081304;22;20047;-80
2023/05/12 08:07:10;;;;;;;6.85;4.47;;;12.90;99.90;;;;;;5045695;28;20112;-81
2023/05/12 08:09:36;;;;;;;8.15;4.78;;;13.10;99.90;;;;;;5068565;28;20024;-83
2023/05/12 08:12:01;;;;;;;5.43;3.55;;;13.10;99.90;;;;;;5072625;28;20420;-82
2023/05/12 08:14:27;;;;;;;6.72;3.67;;;13.10;99.90;;;;;;5082723;28;20025;-81
2023/05/12 08:16:53;;;;;;;4.05;3.42;;;13.30;99.90;;;;;;5061928;28;20485;-80
2023/05/12 08:19:18;;;;;;;6.75;3.90;;;13.30;99.90;;;;;;5072583;28;20113;-82
2023/05/12 08:21:44;;;;;;;5.10;3.78;;;13.30;99.90;;;;;;5066966;28;20033;-81
2023/05/12 08:24:10;;;;;;;7.63;4.20;;;13.50;99.90;;;;;;5078786;28;20021;-81
2023/05/12 08:26:35;;;;;;;5.65;4.03;;;13.60;99.90;;;;;;5065310;28;20005;-81
2023/05/12 08:29:01;;;;;;;9.35;4.35;;;13.60;99.90;;;;;;5053194;28;20031;-81
2023/05/12 08:31:26;;;;;;;5.70;4.00;;;13.60;99.90;;;;;;5066324;28;20029;-79
2023/05/12 08:33:52;;;;;;;5.57;3.60;;;13.60;99.90;;;;;;5039576;28;20033;-80
2023/05/12 08:36:19;;;;;;;6.75;4.35;;;13.40;99.90;;;;;;5043069;28;20029;-81
2023/05/12 08:38:45;;;;;;;9.15;5.65;;;13.50;99.90;;;;;;5060200;28;20025;-81
2023/05/12 08:41:35;;;;;;;6.80;4.88;;;13.60;99.90;;;;;;5039820;28;20482;-81
2023/05/12 08:44:02;;;;;;;5.75;4.47;;;13.60;99.90;;;;;;5057715;28;20028;-81
2023/05/12 08:46:30;;;;;;;9.25;5.30;;;13.70;99.90;;;;;;5058492;28;20036;-81
2023/05/12 08:48:59;;;;;;;7.95;4.68;;;13.60;99.90;;;;;;5046093;28;20313;-82
2023/05/12 08:51:27;;;;;;;;;;;13.50;99.90;;;;;;5545533;22;20041;-82
2023/05/12 08:53:54;;;;;;;22.40;11.05;;;13.40;99.90;;;;;;5034675;28;19916;-78
2023/05/12 08:56:21;;;;;;;17.60;8.98;;;13.50;99.90;;;;;;5032602;28;20036;-82
2023/05/12 08:58:47;;;;;;;21.23;11.57;;;13.50;99.90;;;;;;5018684;28;20116;-81
2023/05/12 09:01:14;;;;;;;20.67;9.55;;;13.70;99.90;;;;;;5054986;28;20025;-81
2023/05/12 09:03:41;;;;;;;14.25;8.77;;;;;;;;;;5029565;28;20126;-82
2023/05/12 09:06:07;;;;;;;24.00;11.77;;;13.10;99.90;;;;;;5351158;22;20066;-80
2023/05/12 09:08:33;;;;;;;17.02;10.35;;;13.10;99.90;;;;;;5029949;28;20006;-80
2023/05/12 09:11:00;;;;;;;14.70;9.20;;;13.10;99.90;;;;;;5025341;28;20038;-82
2023/05/12 09:15:58;;;;;;;21.23;9.20;;;13.10;99.90;;;;;;5029967;28;20054;-83
2023/05/12 09:18:24;;;;;;;20.57;11.43;;;;;;;;;;5006206;28;20038;-81
2023/05/12 09:20:51;;;;;;;36.90;16.48;;;13.20;99.90;;;;;;5003763;28;20297;-81
2023/05/12 09:23:19;;;;;;;28.92;14.63;;;13.50;99.90;;;;;;5002635;28;20033;-80
2023/05/12 09:25:48;;;;;;;22.92;11.10;;;13.80;99.90;;;;;;4997741;28;20018;-82
2023/05/12 09:28:14;;;;;;;16.33;9.90;;;14.30;99.90;;;;;;5007413;28;20026;-82
2023/05/12 09:30:41;;;;;;;21.90;10.55;;;;;;;;;;5033097;28;20034;-82
2023/05/12 09:33:08;;;;;;;22.73;12.30;;;15.00;99.90;;;;;;5012739;28;20026;-82
2023/05/12 09:35:41;;;;;;;17.13;8.10;;;15.00;99.90;;;;;;4999747;28;20497;-80
2023/05/12 09:38:09;;;;;;;19.60;10.75;;;15.50;99.90;;;;;;5000514;28;20133;-81
2023/05/12 09:40:35;;;;;;;15.75;8.65;;;15.80;99.90;;;;;;5003078;28;20026;-81
2023/05/12 09:43:01;;;;;;;14.73;8.40;;;16.00;99.90;;;;;;5009218;28;20034;-82
2023/05/12 09:45:27;;;;;;;16.15;9.38;;;16.60;99.90;;;;;;4999443;28;20034;-80
2023/05/12 09:47:53;;;;;;;12.02;7.32;;;;;;;;;;5012319;28;20061;-82
2023/05/12 09:50:21;;;;;;;9.35;6.75;;;17.00;99.90;;;;;;5010915;28;20094;-80
2023/05/12 09:52:50;;;;;;;10.57;6.82;;;17.30;99.90;;;;;;5002968;28;20121;-79
2023/05/12 09:55:16;;;;;;;15.45;7.57;;;17.60;99.90;;;;;;5012462;28;20021;-79
2023/05/12 09:57:42;;;;;;;14.40;6.28;;;17.70;99.90;;;;;;4995014;28;20501;-78
2023/05/12 10:00:13;;;;;;;11.45;6.38;;;17.40;99.90;;;;;;5012016;28;20421;-79
2023/05/12 10:02:41;;;;;;;13.07;7.97;;;17.20;99.90;;;;;;4994628;28;20060;-78
2023/05/12 10:05:19;;;;;;;10.43;7.22;;;17.10;99.90;;;;;;4995467;28;20026;-79
2023/05/12 10:07:47;;;;;;;14.20;7.57;;;16.30;99.90;;;;;;4994952;28;20040;-78
2023/05/12 10:10:18;;;;;;;8.93;5.95;;;16.60;99.90;;;;;;4994592;28;20026;-80
2023/05/12 10:12:44;;;;;;;12.02;6.63;;;17.00;99.90;;;;;;4995936;28;20026;-79
2023/05/12 10:15:11;;;;;;;11.10;6.45;;;16.90;99.90;;;;;;4994723;28;20045;-79
2023/05/12 10:17:40;;;;;;;7.03;5.20;;;16.00;99.90;;;;;;4994429;28;20387;-78
2023/05/12 10:20:08;;;;;;;9.57;5.93;;;16.10;99.90;;;;;;4996522;28;20053;-80
2023/05/12 10:22:37;;;;;;;9.77;6.13;;;16.00;99.90;;;;;;4997584;28;20331;-80
2023/05/12 10:25:04;;;;;;;7.32;5.15;;;16.30;99.90;;;;;;5015446;28;20022;-80
2023/05/12 10:27:32;;;;;;;9.05;5.97;;;17.00;99.90;;;;;;4995537;28;20041;-78
2023/05/12 10:30:00;;;;;;;11.52;6.45;;;18.00;99.90;;;;;;4993535;28;20022;-79
2023/05/12 10:32:26;;;;;;;11.20;6.40;;;18.60;99.80;;;;;;4994086;28;20087;-79
2023/05/12 10:34:52;;;;;;;16.95;7.10;;;17.00;97.40;;;;;;5012529;28;20029;-80
2023/05/12 10:37:18;;;;;;;10.00;5.97;;;19.00;93.20;;;;;;4996304;28;20030;-80
2023/05/12 10:39:51;;;;;;;7.50;5.53;;;19.30;91.40;;;;;;4999325;28;20364;-80
2023/05/12 10:42:24;;;;;;;9.95;5.55;;;18.90;90.60;;;;;;4996220;28;20034;-79
2023/05/12 10:44:51;;;;;;;6.53;4.45;;;19.40;89.90;;;;;;4992816;28;20033;-81
2023/05/12 10:47:17;;;;;;;9.63;4.90;;;20.30;84.60;;;;;;4992415;28;20025;-79
2023/05/12 10:49:43;;;;;;;5.00;4.10;;;21.20;84.00;;;;;;4992302;28;20087;-80
2023/05/12 10:52:12;;;;;;;7.78;5.00;;;21.70;75.70;;;;;;5011711;28;20071;-78
2023/05/12 10:54:43;;;;;;;9.82;4.88;;;21.60;74.50;;;;;;4992758;28;20045;-79
2023/05/12 10:57:27;;;;;;;7.68;5.22;;;21.60;76.90;;;;;;5010303;28;20400;-79
2023/05/12 10:59:57;;;;;;;8.10;5.05;;;22.10;70.40;;;;;;4992671;28;20156;-79
2023/05/12 11:02:27;;;;;;;9.35;4.28;;;21.50;71.00;;;;;;4993337;28;20038;-79
2023/05/12 11:05:09;;;;;;;4.50;3.70;;;19.60;78.70;;;;;;4994422;28;20018;-81
2023/05/12 11:07:35;;;;;;;8.70;3.70;;;19.10;79.70;;;;;;4993116;28;20298;-80
2023/05/12 11:10:03;;;;;;;6.80;3.80;;;19.70;77.20;;;;;;4992114;28;20379;-79
2023/05/12 11:12:31;;;;;;;7.30;5.18;;;20.80;73.80;;;;;;4994377;28;20033;-81
2023/05/12 11:14:59;;;;;;;6.72;4.43;;;18.30;86.00;;;;;;4990397;28;20050;-79
2023/05/12 11:17:25;;;;;;;7.10;5.10;;;18.20;88.30;;;;;;4990015;28;20052;-79
2023/05/12 11:19:52;;;;;;;8.38;5.13;;;17.20;95.80;;;;;;4993191;28;20422;-80
2023/05/12 11:22:20;;;;;;;8.23;5.28;;;16.60;99.90;;;;;;4992000;28;20027;-78
2023/05/12 11:24:47;;;;;;;8.23;5.57;;;16.90;99.90;;;;;;4992695;28;20089;-80
2023/05/12 11:27:18;;;;;;;9.25;4.88;;;16.80;99.90;;;;;;4997723;28;20017;-82
2023/05/12 11:29:53;;;;;;;7.82;5.35;;;16.50;99.90;;;;;;4993661;28;20049;-80
2023/05/12 11:32:19;;;;;;;6.97;5.07;;;15.90;99.90;;;;;;5014804;28;20030;-81
2023/05/12 11:34:46;;;;;;;7.95;5.35;;;;;;;;;;5000035;28;20367;-80
2023/05/12 11:37:11;;;;;;;9.32;6.03;;;15.80;99.90;;;;;;4997470;28;20461;-81
2023/05/12 11:39:38;;;;;;;9.07;5.88;;;;;;;;;;4995997;28;20589;-80
2023/05/12 11:42:08;;;;;;;8.30;6.05;;;15.10;99.90;;;;;;4993904;28;20088;-79
2023/05/12 11:44:34;;;;;;;6.75;5.10;;;15.20;99.90;;;;;;4994021;28;20045;-80
2023/05/12 11:47:12;;;;;;;8.57;5.57;;;16.70;99.90;;;;;;4994452;28;20539;-81
2023/05/12 11:49:49;;;;;;;9.68;5.57;;;17.90;99.90;;;;;;4993671;28;20037;-80
2023/05/12 11:52:15;;;;;;;9.52;5.32;;;18.40;99.90;;;;;;4993782;28;20054;-81
2023/05/12 11:54:55;;;;;;;8.00;4.80;;;18.20;96.10;;;;;;4994762;28;20046;-80
2023/05/12 11:57:32;;;;;;;5.57;4.40;;;17.90;98.60;;;;;;4994400;28;20022;-80
2023/05/12 12:00:03;;;;;;;7.63;4.05;;;18.40;98.90;;;;;;5007876;28;20025;-80
2023/05/12 12:02:29;;;;;;;4.63;3.92;;;19.60;93.10;;;;;;4995075;28;20069;-79
2023/05/12 12:04:55;;;;;;;7.57;2.85;;;17.20;85.60;;;;;;4995384;28;20022;-81
2023/05/12 12:07:29;;;;;;;4.43;3.42;;;21.00;82.70;;;;;;4993262;28;20026;-79
2023/05/12 12:09:56;;;;;;;5.47;3.92;;;22.00;72.80;;;;;;4992452;28;20025;-80
2023/05/12 12:12:22;;;;;;;5.38;3.28;;;22.50;68.60;;;;;;4991685;28;20393;-78
2023/05/12 12:14:47;;;;;;;3.63;3.10;;;23.10;68.00;;;;;;5009093;28;20050;-80
2023/05/12 12:17:13;;;;;;;6.10;3.00;;;24.00;65.80;;;;;;4994068;28;20032;-80
2023/05/12 12:19:39;;;;;;;3.20;2.90;;;23.80;64.10;;;;;;5009368;28;20170;-79
2023/05/12 12:22:04;;;;;;;4.78;3.47;;;23.30;66.00;;;;;;5009381;28;20026;-78
2023/05/12 12:24:30;;;;;;;4.22;3.00;;;20.40;69.90;;;;;;5013784;28;20041;-80
2023/05/12 12:26:56;;;;;;;5.05;3.22;;;20.40;70.50;;;;;;4996132;28;20061;-78
2023/05/12 12:29:23;;;;;;;4.82;3.55;;;19.00;76.00;;;;;;5009932;28;20561;-80
2023/05/12 12:31:49;;;;;;;3.88;3.47;;;18.00;79.60;;;;;;4995527;28;20363;-80
2023/05/12 12:34:15;;;;;;;4.63;3.88;;;17.70;84.50;;;;;;5026652;28;20022;-80
2023/05/12 12:36:40;;;;;;;7.10;5.32;;;17.40;89.20;;;;;;4994202;28;20022;-80
2023/05/12 12:39:06;;;;;;;5.57;3.67;;;17.00;90.40;;;;;;4992396;28;20057;-79
2023/05/12 12:41:32;;;;;;;7.72;4.30;;;17.00;91.70;;;;;;4979199;28;20061;-80
2023/05/12 12:43:58;;;;;;;5.15;4.05;;;16.40;93.80;;;;;;4993225;28;20033;-80
2023/05/12 12:46:24;;;;;;;7.13;4.38;;;18.00;95.20;;;;;;4992982;28;20218;-80
2023/05/12 12:48:50;;;;;;;5.10;3.33;;;;;;;;;;5010320;28;20462;-78
2023/05/12 12:51:15;;;;;;;4.28;3.20;;;16.70;91.20;;;;;;5010791;28;20030;-78
2023/05/12 12:53:44;;;;;;;3.88;3.28;;;16.80;91.80;;;;;;4991857;28;20038;-79
2023/05/12 12:56:10;;;;;;;4.57;3.90;;;16.60;93.70;;;;;;4993780;28;20022;-78
2023/05/12 12:58:36;;;;;;;5.80;3.42;;;;;;;;;;4992321;28;20332;-78
2023/05/12 13:01:01;;;;;;;4.55;3.10;;;16.90;93.40;;;;;;4994045;28;20030;-78
2023/05/12 13:03:27;;;;;;;5.97;3.53;;;17.20;92.80;;;;;;5014770;28;20109;-79
2023/05/12 13:05:53;;;;;;;5.30;3.25;;;;;;;;;;4997347;28;20033;-79
2023/05/12 13:08:19;;;;;;;2.80;2.47;;;21.50;70.30;;;;;;4995950;28;20068;-78
2023/05/12 13:10:45;;;;;;;3.40;2.80;;;21.50;70.90;;;;;;4995962;28;20031;-79
2023/05/12 13:13:11;;;;;;;4.30;2.60;;;21.70;68.10;;;;;;5012473;28;20402;-79
2023/05/12 13:15:37;;;;;;;4.10;2.60;;;22.30;68.50;;;;;;5013462;28;20065;-79
2023/05/12 13:18:03;;;;;;;3.95;2.50;;;22.40;67.30;;;;;;4995914;28;20034;-78
2023/05/12 13:20:29;;;;;;;2.10;1.90;;;22.90;64.00;;;;;;5012656;28;20038;-77